sensor_id;sensor_type;location;lat;lon;timestamp;P1;durP1;ratioP1;P2;durP2;ratioP2
27893;SDS011;15240;50.812;4.792;2023-08-07T00:00:33;10.33;;;3.30;;
27893;SDS011;15240;50.812;4.792;2023-08-07T00:02:59;14.47;;;3.83;;
27893;SDS011;15240;50.812;4.792;2023-08-07T00:05:25;12.43;;;3.77;;
27893;SDS011;15240;50.812;4.792;2023-08-07T00:07:52;12.27;;;3.53;;
27893;SDS011;15240;50.812;4.792;2023-08-07T00:10:18;12.20;;;3.90;;
27893;SDS011;15240;50.812;4.792;2023-08-07T00:12:44;12.13;;;3.77;;
27893;SDS011;15240;50.812;4.792;2023-08-07T00:15:10;12.00;;;3.47;;
27893;SDS011;15240;50.812;4.792;2023-08-07T00:17:40;10.17;;;3.50;;
27893;SDS011;15240;50.812;4.792;2023-08-07T00:20:06;14.97;;;3.73;;
27893;SDS011;15240;50.812;4.792;2023-08-07T00:22:32;12.90;;;3.63;;
27893;SDS011;15240;50.812;4.792;2023-08-07T00:24:58;11.10;;;3.43;;
27893;SDS011;15240;50.812;4.792;2023-08-07T00:27:25;11.17;;;3.70;;
27893;SDS011;15240;50.812;4.792;2023-08-07T00:29:51;7.90;;;3.60;;
27893;SDS011;15240;50.812;4.792;2023-08-07T00:32:17;12.93;;;3.83;;
27893;SDS011;15240;50.812;4.792;2023-08-07T00:34:43;10.07;;;3.43;;
27893;SDS011;15240;50.812;4.792;2023-08-07T00:37:09;12.50;;;3.67;;
27893;SDS011;15240;50.812;4.792;2023-08-07T00:39:35;11.03;;;3.70;;
27893;SDS011;15240;50.812;4.792;2023-08-07T00:42:01;13.83;;;3.73;;
27893;SDS011;15240;50.812;4.792;2023-08-07T00:44:27;12.07;;;3.23;;
27893;SDS011;15240;50.812;4.792;2023-08-07T00:46:53;14.27;;;4.50;;
27893;SDS011;15240;50.812;4.792;2023-08-07T00:49:20;11.80;;;3.40;;
27893;SDS011;15240;50.812;4.792;2023-08-07T00:51:46;14.17;;;3.50;;
27893;SDS011;15240;50.812;4.792;2023-08-07T00:54:14;10.20;;;3.13;;
27893;SDS011;15240;50.812;4.792;2023-08-07T00:56:41;10.37;;;3.20;;
27893;SDS011;15240;50.812;4.792;2023-08-07T00:59:07;11.50;;;3.33;;
27893;SDS011;15240;50.812;4.792;2023-08-07T01:01:34;10.83;;;4.20;;
27893;SDS011;15240;50.812;4.792;2023-08-07T01:04:01;13.13;;;3.77;;
27893;SDS011;15240;50.812;4.792;2023-08-07T01:06:27;10.67;;;3.47;;
27893;SDS011;15240;50.812;4.792;2023-08-07T01:08:53;8.17;;;3.60;;
27893;SDS011;15240;50.812;4.792;2023-08-07T01:16:47;11.03;;;3.77;;
27893;SDS011;15240;50.812;4.792;2023-08-07T01:19:18;7.10;;;3.40;;
27893;SDS011;15240;50.812;4.792;2023-08-07T01:21:47;11.60;;;3.53;;
27893;SDS011;15240;50.812;4.792;2023-08-07T01:24:14;8.67;;;3.37;;
27893;SDS011;15240;50.812;4.792;2023-08-07T01:26:42;10.93;;;3.63;;
27893;SDS011;15240;50.812;4.792;2023-08-07T01:29:22;9.47;;;3.60;;
27893;SDS011;15240;50.812;4.792;2023-08-07T01:31:51;8.53;;;3.37;;
27893;SDS011;15240;50.812;4.792;2023-08-07T01:34:19;8.53;;;3.40;;
27893;SDS011;15240;50.812;4.792;2023-08-07T01:36:48;10.37;;;3.23;;
27893;SDS011;15240;50.812;4.792;2023-08-07T01:39:15;7.37;;;3.37;;
27893;SDS011;15240;50.812;4.792;2023-08-07T01:41:42;10.57;;;3.27;;
27893;SDS011;15240;50.812;4.792;2023-08-07T01:44:08;12.17;;;3.23;;
27893;SDS011;15240;50.812;4.792;2023-08-07T01:46:34;7.07;;;3.33;;
27893;SDS011;15240;50.812;4.792;2023-08-07T01:49:00;12.53;;;3.97;;
27893;SDS011;15240;50.812;4.792;2023-08-07T01:51:26;12.20;;;3.43;;
27893;SDS011;15240;50.812;4.792;2023-08-07T01:53:52;9.60;;;3.40;;
27893;SDS011;15240;50.812;4.792;2023-08-07T01:56:18;9.83;;;3.00;;
27893;SDS011;15240;50.812;4.792;2023-08-07T01:58:44;8.37;;;3.10;;
27893;SDS011;15240;50.812;4.792;2023-08-07T02:01:10;8.40;;;3.27;;
27893;SDS011;15240;50.812;4.792;2023-08-07T02:03:36;6.77;;;3.20;;
27893;SDS011;15240;50.812;4.792;2023-08-07T02:06:03;10.07;;;3.33;;
27893;SDS011;15240;50.812;4.792;2023-08-07T02:08:29;7.07;;;2.97;;
27893;SDS011;15240;50.812;4.792;2023-08-07T02:10:55;9.87;;;3.27;;
27893;SDS011;15240;50.812;4.792;2023-08-07T02:13:21;8.57;;;3.13;;
27893;SDS011;15240;50.812;4.792;2023-08-07T02:15:47;9.53;;;2.77;;
27893;SDS011;15240;50.812;4.792;2023-08-07T02:18:13;10.57;;;3.07;;
27893;SDS011;15240;50.812;4.792;2023-08-07T02:20:39;10.13;;;2.90;;
27893;SDS011;15240;50.812;4.792;2023-08-07T02:23:05;7.90;;;2.93;;
27893;SDS011;15240;50.812;4.792;2023-08-07T02:25:31;7.03;;;2.80;;
27893;SDS011;15240;50.812;4.792;2023-08-07T02:27:57;7.03;;;3.07;;
27893;SDS011;15240;50.812;4.792;2023-08-07T02:30:23;9.47;;;2.77;;
27893;SDS011;15240;50.812;4.792;2023-08-07T02:32:49;5.70;;;2.80;;
27893;SDS011;15240;50.812;4.792;2023-08-07T02:35:16;12.23;;;3.20;;
27893;SDS011;15240;50.812;4.792;2023-08-07T02:37:42;9.93;;;2.90;;
27893;SDS011;15240;50.812;4.792;2023-08-07T02:40:08;11.90;;;3.17;;
27893;SDS011;15240;50.812;4.792;2023-08-07T02:42:34;6.60;;;3.00;;
27893;SDS011;15240;50.812;4.792;2023-08-07T02:45:01;8.90;;;2.97;;
27893;SDS011;15240;50.812;4.792;2023-08-07T02:47:27;9.40;;;2.83;;
27893;SDS011;15240;50.812;4.792;2023-08-07T02:49:53;9.53;;;3.07;;
27893;SDS011;15240;50.812;4.792;2023-08-07T02:52:19;6.60;;;2.80;;
27893;SDS011;15240;50.812;4.792;2023-08-07T02:54:45;9.23;;;3.37;;
27893;SDS011;15240;50.812;4.792;2023-08-07T02:57:11;5.97;;;2.60;;
27893;SDS011;15240;50.812;4.792;2023-08-07T02:59:37;6.57;;;2.60;;
27893;SDS011;15240;50.812;4.792;2023-08-07T03:02:04;9.17;;;3.40;;
27893;SDS011;15240;50.812;4.792;2023-08-07T03:04:30;5.00;;;2.87;;
27893;SDS011;15240;50.812;4.792;2023-08-07T03:06:56;11.20;;;3.13;;
27893;SDS011;15240;50.812;4.792;2023-08-07T03:09:22;5.87;;;2.90;;
27893;SDS011;15240;50.812;4.792;2023-08-07T03:11:48;10.63;;;2.80;;
27893;SDS011;15240;50.812;4.792;2023-08-07T03:14:14;5.80;;;2.60;;
27893;SDS011;15240;50.812;4.792;2023-08-07T03:16:40;6.83;;;3.10;;
27893;SDS011;15240;50.812;4.792;2023-08-07T03:19:06;8.90;;;2.50;;
27893;SDS011;15240;50.812;4.792;2023-08-07T03:21:32;9.53;;;2.80;;
27893;SDS011;15240;50.812;4.792;2023-08-07T03:23:59;8.93;;;2.93;;
27893;SDS011;15240;50.812;4.792;2023-08-07T03:26:25;11.37;;;2.97;;
27893;SDS011;15240;50.812;4.792;2023-08-07T03:28:51;6.40;;;2.53;;
27893;SDS011;15240;50.812;4.792;2023-08-07T03:31:17;9.33;;;2.93;;
27893;SDS011;15240;50.812;4.792;2023-08-07T03:33:43;7.00;;;2.97;;
27893;SDS011;15240;50.812;4.792;2023-08-07T03:36:09;7.87;;;2.77;;
27893;SDS011;15240;50.812;4.792;2023-08-07T03:38:35;9.93;;;3.10;;
27893;SDS011;15240;50.812;4.792;2023-08-07T03:41:01;7.37;;;2.73;;
27893;SDS011;15240;50.812;4.792;2023-08-07T03:43:28;5.87;;;3.07;;
27893;SDS011;15240;50.812;4.792;2023-08-07T03:45:54;10.07;;;2.97;;
27893;SDS011;15240;50.812;4.792;2023-08-07T03:48:23;8.47;;;3.33;;
27893;SDS011;15240;50.812;4.792;2023-08-07T03:50:49;6.63;;;2.60;;
27893;SDS011;15240;50.812;4.792;2023-08-07T03:53:17;8.17;;;2.83;;
27893;SDS011;15240;50.812;4.792;2023-08-07T03:55:48;8.67;;;2.90;;
27893;SDS011;15240;50.812;4.792;2023-08-07T03:58:15;7.63;;;2.77;;
27893;SDS011;15240;50.812;4.792;2023-08-07T04:00:41;8.97;;;2.73;;
27893;SDS011;15240;50.812;4.792;2023-08-07T04:03:07;9.60;;;3.10;;
27893;SDS011;15240;50.812;4.792;2023-08-07T04:05:33;10.70;;;3.20;;
27893;SDS011;15240;50.812;4.792;2023-08-07T04:07:59;9.27;;;3.30;;
27893;SDS011;15240;50.812;4.792;2023-08-07T04:10:25;9.57;;;2.80;;
27893;SDS011;15240;50.812;4.792;2023-08-07T04:12:51;9.33;;;3.10;;
27893;SDS011;15240;50.812;4.792;2023-08-07T04:15:17;8.23;;;2.90;;
27893;SDS011;15240;50.812;4.792;2023-08-07T04:17:44;6.20;;;2.83;;
27893;SDS011;15240;50.812;4.792;2023-08-07T04:20:10;10.17;;;2.80;;
27893;SDS011;15240;50.812;4.792;2023-08-07T04:22:36;5.00;;;2.90;;
27893;SDS011;15240;50.812;4.792;2023-08-07T04:25:02;9.40;;;3.00;;
27893;SDS011;15240;50.812;4.792;2023-08-07T04:27:28;10.63;;;3.13;;
27893;SDS011;15240;50.812;4.792;2023-08-07T04:29:54;6.80;;;3.23;;
27893;SDS011;15240;50.812;4.792;2023-08-07T04:32:20;7.37;;;3.00;;
27893;SDS011;15240;50.812;4.792;2023-08-07T04:34:46;10.27;;;2.87;;
27893;SDS011;15240;50.812;4.792;2023-08-07T04:37:12;7.53;;;3.03;;
27893;SDS011;15240;50.812;4.792;2023-08-07T04:39:38;7.63;;;3.20;;
27893;SDS011;15240;50.812;4.792;2023-08-07T04:42:04;7.57;;;2.87;;
27893;SDS011;15240;50.812;4.792;2023-08-07T04:44:32;10.20;;;2.97;;
27893;SDS011;15240;50.812;4.792;2023-08-07T04:46:58;9.03;;;3.07;;
27893;SDS011;15240;50.812;4.792;2023-08-07T04:49:24;7.70;;;2.80;;
27893;SDS011;15240;50.812;4.792;2023-08-07T04:51:50;6.13;;;2.60;;
27893;SDS011;15240;50.812;4.792;2023-08-07T04:54:16;5.63;;;3.30;;
27893;SDS011;15240;50.812;4.792;2023-08-07T04:56:42;6.80;;;2.83;;
27893;SDS011;15240;50.812;4.792;2023-08-07T04:59:09;7.77;;;2.83;;
27893;SDS011;15240;50.812;4.792;2023-08-07T05:01:35;8.57;;;2.90;;
27893;SDS011;15240;50.812;4.792;2023-08-07T05:04:01;7.60;;;2.77;;
27893;SDS011;15240;50.812;4.792;2023-08-07T05:06:27;6.20;;;2.77;;
27893;SDS011;15240;50.812;4.792;2023-08-07T05:08:53;6.67;;;2.70;;
27893;SDS011;15240;50.812;4.792;2023-08-07T05:11:19;9.03;;;2.97;;
27893;SDS011;15240;50.812;4.792;2023-08-07T05:13:46;6.50;;;2.87;;
27893;SDS011;15240;50.812;4.792;2023-08-07T05:16:12;9.27;;;2.90;;
27893;SDS011;15240;50.812;4.792;2023-08-07T05:18:38;8.43;;;2.80;;
27893;SDS011;15240;50.812;4.792;2023-08-07T05:21:04;6.63;;;2.67;;
27893;SDS011;15240;50.812;4.792;2023-08-07T05:23:32;8.47;;;2.80;;
27893;SDS011;15240;50.812;4.792;2023-08-07T05:25:58;9.03;;;3.00;;
27893;SDS011;15240;50.812;4.792;2023-08-07T05:28:24;7.53;;;2.70;;
27893;SDS011;15240;50.812;4.792;2023-08-07T05:30:50;7.43;;;2.93;;
27893;SDS011;15240;50.812;4.792;2023-08-07T05:33:16;5.90;;;2.90;;
27893;SDS011;15240;50.812;4.792;2023-08-07T05:35:42;9.13;;;2.60;;
27893;SDS011;15240;50.812;4.792;2023-08-07T05:38:09;10.53;;;2.67;;
27893;SDS011;15240;50.812;4.792;2023-08-07T05:40:35;6.73;;;2.83;;
27893;SDS011;15240;50.812;4.792;2023-08-07T05:43:01;6.80;;;2.90;;
27893;SDS011;15240;50.812;4.792;2023-08-07T05:45:28;9.27;;;2.60;;
27893;SDS011;15240;50.812;4.792;2023-08-07T05:47:54;5.57;;;2.60;;
27893;SDS011;15240;50.812;4.792;2023-08-07T05:50:19;8.00;;;2.60;;
27893;SDS011;15240;50.812;4.792;2023-08-07T05:52:45;6.47;;;2.50;;
27893;SDS011;15240;50.812;4.792;2023-08-07T05:55:12;7.73;;;2.83;;
27893;SDS011;15240;50.812;4.792;2023-08-07T05:57:38;8.10;;;2.53;;
27893;SDS011;15240;50.812;4.792;2023-08-07T06:00:04;7.73;;;3.13;;
27893;SDS011;15240;50.812;4.792;2023-08-07T06:02:30;6.50;;;2.40;;
27893;SDS011;15240;50.812;4.792;2023-08-07T06:04:57;9.77;;;2.63;;
27893;SDS011;15240;50.812;4.792;2023-08-07T06:07:23;7.53;;;2.67;;
27893;SDS011;15240;50.812;4.792;2023-08-07T06:09:49;8.43;;;2.30;;
27893;SDS011;15240;50.812;4.792;2023-08-07T06:12:15;5.57;;;2.20;;
27893;SDS011;15240;50.812;4.792;2023-08-07T06:14:41;5.43;;;1.90;;
27893;SDS011;15240;50.812;4.792;2023-08-07T06:17:08;7.83;;;2.53;;
27893;SDS011;15240;50.812;4.792;2023-08-07T06:19:34;4.97;;;2.13;;
27893;SDS011;15240;50.812;4.792;2023-08-07T06:22:00;5.30;;;2.07;;
27893;SDS011;15240;50.812;4.792;2023-08-07T06:24:26;5.53;;;2.00;;
27893;SDS011;15240;50.812;4.792;2023-08-07T06:26:52;4.15;;;2.08;;
27893;SDS011;15240;50.812;4.792;2023-08-07T06:29:18;5.90;;;2.08;;
27893;SDS011;15240;50.812;4.792;2023-08-07T06:31:44;7.95;;;1.70;;
27893;SDS011;15240;50.812;4.792;2023-08-07T06:34:10;7.70;;;2.05;;
27893;SDS011;15240;50.812;4.792;2023-08-07T06:36:36;7.85;;;1.90;;
27893;SDS011;15240;50.812;4.792;2023-08-07T06:39:02;6.85;;;1.77;;
27893;SDS011;15240;50.812;4.792;2023-08-07T06:41:29;5.35;;;1.83;;
27893;SDS011;15240;50.812;4.792;2023-08-07T06:43:56;4.35;;;1.90;;
27893;SDS011;15240;50.812;4.792;2023-08-07T06:46:22;4.68;;;1.85;;
27893;SDS011;15240;50.812;4.792;2023-08-07T06:48:51;4.45;;;1.90;;
27893;SDS011;15240;50.812;4.792;2023-08-07T06:51:17;3.97;;;1.80;;
27893;SDS011;15240;50.812;4.792;2023-08-07T06:53:43;4.25;;;1.60;;
27893;SDS011;15240;50.812;4.792;2023-08-07T06:56:10;3.25;;;1.65;;
27893;SDS011;15240;50.812;4.792;2023-08-07T06:58:36;5.40;;;1.70;;
27893;SDS011;15240;50.812;4.792;2023-08-07T07:01:02;5.70;;;2.10;;
27893;SDS011;15240;50.812;4.792;2023-08-07T07:03:28;5.07;;;1.92;;
27893;SDS011;15240;50.812;4.792;2023-08-07T07:05:55;5.05;;;1.60;;
27893;SDS011;15240;50.812;4.792;2023-08-07T07:08:21;4.93;;;1.92;;
27893;SDS011;15240;50.812;4.792;2023-08-07T07:10:48;5.68;;;1.98;;
27893;SDS011;15240;50.812;4.792;2023-08-07T07:13:14;5.60;;;1.98;;
27893;SDS011;15240;50.812;4.792;2023-08-07T07:15:40;6.13;;;1.67;;
27893;SDS011;15240;50.812;4.792;2023-08-07T07:18:06;4.25;;;1.80;;
27893;SDS011;15240;50.812;4.792;2023-08-07T07:20:33;5.32;;;1.67;;
27893;SDS011;15240;50.812;4.792;2023-08-07T07:22:59;5.03;;;1.80;;
27893;SDS011;15240;50.812;4.792;2023-08-07T07:25:25;4.18;;;1.65;;
27893;SDS011;15240;50.812;4.792;2023-08-07T07:27:51;5.10;;;1.73;;
27893;SDS011;15240;50.812;4.792;2023-08-07T07:30:18;4.55;;;1.85;;
27893;SDS011;15240;50.812;4.792;2023-08-07T07:32:45;6.35;;;2.13;;
27893;SDS011;15240;50.812;4.792;2023-08-07T07:35:12;6.72;;;1.80;;
27893;SDS011;15240;50.812;4.792;2023-08-07T07:37:38;5.32;;;1.73;;
27893;SDS011;15240;50.812;4.792;2023-08-07T07:40:04;5.43;;;1.75;;
27893;SDS011;15240;50.812;4.792;2023-08-07T07:42:31;4.53;;;2.00;;
27893;SDS011;15240;50.812;4.792;2023-08-07T07:44:57;5.88;;;1.65;;
27893;SDS011;15240;50.812;4.792;2023-08-07T07:47:23;3.67;;;1.67;;
27893;SDS011;15240;50.812;4.792;2023-08-07T07:49:49;4.50;;;1.52;;
27893;SDS011;15240;50.812;4.792;2023-08-07T07:52:29;3.53;;;1.60;;
27893;SDS011;15240;50.812;4.792;2023-08-07T07:54:56;6.68;;;2.08;;
27893;SDS011;15240;50.812;4.792;2023-08-07T07:57:22;5.25;;;1.83;;
27893;SDS011;15240;50.812;4.792;2023-08-07T07:59:48;4.50;;;1.73;;
27893;SDS011;15240;50.812;4.792;2023-08-07T08:02:14;7.28;;;1.90;;
27893;SDS011;15240;50.812;4.792;2023-08-07T08:04:41;3.90;;;1.73;;
27893;SDS011;15240;50.812;4.792;2023-08-07T08:07:07;4.05;;;1.73;;
27893;SDS011;15240;50.812;4.792;2023-08-07T08:09:33;5.30;;;1.52;;
27893;SDS011;15240;50.812;4.792;2023-08-07T08:11:59;6.15;;;1.95;;
27893;SDS011;15240;50.812;4.792;2023-08-07T08:14:25;5.53;;;1.85;;
27893;SDS011;15240;50.812;4.792;2023-08-07T08:16:52;5.00;;;1.90;;
27893;SDS011;15240;50.812;4.792;2023-08-07T08:19:18;4.57;;;1.85;;
27893;SDS011;15240;50.812;4.792;2023-08-07T08:21:44;5.55;;;1.95;;
27893;SDS011;15240;50.812;4.792;2023-08-07T08:24:10;6.75;;;2.22;;
27893;SDS011;15240;50.812;4.792;2023-08-07T08:26:36;5.10;;;1.92;;
27893;SDS011;15240;50.812;4.792;2023-08-07T08:29:02;5.90;;;1.90;;
27893;SDS011;15240;50.812;4.792;2023-08-07T08:31:29;4.65;;;1.85;;
27893;SDS011;15240;50.812;4.792;2023-08-07T08:33:58;4.40;;;1.80;;
27893;SDS011;15240;50.812;4.792;2023-08-07T08:36:24;4.32;;;1.70;;
27893;SDS011;15240;50.812;4.792;2023-08-07T08:38:50;4.45;;;2.00;;
27893;SDS011;15240;50.812;4.792;2023-08-07T08:41:16;5.05;;;2.25;;
27893;SDS011;15240;50.812;4.792;2023-08-07T08:43:43;5.70;;;1.98;;
27893;SDS011;15240;50.812;4.792;2023-08-07T08:46:12;5.82;;;1.80;;
27893;SDS011;15240;50.812;4.792;2023-08-07T08:48:40;4.80;;;2.33;;
27893;SDS011;15240;50.812;4.792;2023-08-07T08:51:06;5.90;;;1.95;;
27893;SDS011;15240;50.812;4.792;2023-08-07T08:53:36;4.53;;;2.08;;
27893;SDS011;15240;50.812;4.792;2023-08-07T08:56:02;6.00;;;1.80;;
27893;SDS011;15240;50.812;4.792;2023-08-07T08:58:29;3.63;;;1.90;;
27893;SDS011;15240;50.812;4.792;2023-08-07T09:00:56;5.90;;;1.98;;
27893;SDS011;15240;50.812;4.792;2023-08-07T09:03:23;5.18;;;2.20;;
27893;SDS011;15240;50.812;4.792;2023-08-07T09:05:49;8.02;;;1.80;;
27893;SDS011;15240;50.812;4.792;2023-08-07T09:08:15;3.03;;;1.90;;
27893;SDS011;15240;50.812;4.792;2023-08-07T09:10:42;6.07;;;1.85;;
27893;SDS011;15240;50.812;4.792;2023-08-07T09:13:09;8.63;;;2.20;;
27893;SDS011;15240;50.812;4.792;2023-08-07T09:15:36;4.00;;;2.00;;
27893;SDS011;15240;50.812;4.792;2023-08-07T09:18:05;4.28;;;2.22;;
27893;SDS011;15240;50.812;4.792;2023-08-07T09:20:35;4.90;;;2.10;;
27893;SDS011;15240;50.812;4.792;2023-08-07T09:23:06;4.28;;;1.50;;
27893;SDS011;15240;50.812;4.792;2023-08-07T09:25:34;5.07;;;2.05;;
27893;SDS011;15240;50.812;4.792;2023-08-07T09:28:04;3.85;;;1.75;;
27893;SDS011;15240;50.812;4.792;2023-08-07T09:30:30;3.72;;;1.90;;
27893;SDS011;15240;50.812;4.792;2023-08-07T09:32:57;4.75;;;1.88;;
27893;SDS011;15240;50.812;4.792;2023-08-07T09:35:23;3.83;;;1.67;;
27893;SDS011;15240;50.812;4.792;2023-08-07T09:37:50;4.75;;;2.03;;
27893;SDS011;15240;50.812;4.792;2023-08-07T09:40:16;4.45;;;1.90;;
27893;SDS011;15240;50.812;4.792;2023-08-07T09:42:42;3.70;;;1.70;;
27893;SDS011;15240;50.812;4.792;2023-08-07T09:45:18;5.13;;;1.55;;
27893;SDS011;15240;50.812;4.792;2023-08-07T09:47:44;5.07;;;1.67;;
27893;SDS011;15240;50.812;4.792;2023-08-07T09:50:15;3.55;;;1.60;;
27893;SDS011;15240;50.812;4.792;2023-08-07T09:52:42;3.17;;;1.98;;
27893;SDS011;15240;50.812;4.792;2023-08-07T09:55:08;4.60;;;1.75;;
27893;SDS011;15240;50.812;4.792;2023-08-07T09:57:34;7.45;;;1.58;;
27893;SDS011;15240;50.812;4.792;2023-08-07T10:00:01;3.33;;;1.77;;
27893;SDS011;15240;50.812;4.792;2023-08-07T10:02:28;4.22;;;1.60;;
27893;SDS011;15240;50.812;4.792;2023-08-07T10:04:54;4.82;;;1.70;;
27893;SDS011;15240;50.812;4.792;2023-08-07T10:07:21;2.70;;;1.70;;
27893;SDS011;15240;50.812;4.792;2023-08-07T10:09:47;4.78;;;1.70;;
27893;SDS011;15240;50.812;4.792;2023-08-07T10:12:14;3.20;;;1.58;;
27893;SDS011;15240;50.812;4.792;2023-08-07T10:14:42;3.67;;;1.70;;
27893;SDS011;15240;50.812;4.792;2023-08-07T10:17:08;6.88;;;2.00;;
27893;SDS011;15240;50.812;4.792;2023-08-07T10:19:35;5.22;;;1.60;;
27893;SDS011;15240;50.812;4.792;2023-08-07T10:22:04;3.40;;;1.50;;
27893;SDS011;15240;50.812;4.792;2023-08-07T10:24:30;3.63;;;1.50;;
27893;SDS011;15240;50.812;4.792;2023-08-07T10:26:56;3.15;;;1.70;;
27893;SDS011;15240;50.812;4.792;2023-08-07T10:29:23;4.10;;;1.85;;
27893;SDS011;15240;50.812;4.792;2023-08-07T10:31:50;4.28;;;1.60;;
27893;SDS011;15240;50.812;4.792;2023-08-07T10:34:17;5.40;;;2.03;;
27893;SDS011;15240;50.812;4.792;2023-08-07T10:36:43;4.30;;;1.42;;
27893;SDS011;15240;50.812;4.792;2023-08-07T10:39:10;4.60;;;1.60;;
27893;SDS011;15240;50.812;4.792;2023-08-07T10:44:16;4.35;;;1.70;;
27893;SDS011;15240;50.812;4.792;2023-08-07T10:46:47;3.38;;;1.60;;
27893;SDS011;15240;50.812;4.792;2023-08-07T10:49:29;2.90;;;1.58;;
27893;SDS011;15240;50.812;4.792;2023-08-07T10:51:56;3.60;;;1.80;;
27893;SDS011;15240;50.812;4.792;2023-08-07T10:54:23;3.35;;;1.70;;
27893;SDS011;15240;50.812;4.792;2023-08-07T10:56:53;2.50;;;1.63;;
27893;SDS011;15240;50.812;4.792;2023-08-07T10:59:20;3.42;;;1.77;;
27893;SDS011;15240;50.812;4.792;2023-08-07T11:01:55;2.63;;;1.58;;
27893;SDS011;15240;50.812;4.792;2023-08-07T11:04:21;3.00;;;1.77;;
27893;SDS011;15240;50.812;4.792;2023-08-07T11:06:51;4.13;;;1.67;;
27893;SDS011;15240;50.812;4.792;2023-08-07T11:09:17;2.28;;;1.30;;
27893;SDS011;15240;50.812;4.792;2023-08-07T11:11:43;2.45;;;1.42;;
27893;SDS011;15240;50.812;4.792;2023-08-07T11:14:16;3.30;;;1.40;;
27893;SDS011;15240;50.812;4.792;2023-08-07T11:16:43;3.60;;;1.63;;
27893;SDS011;15240;50.812;4.792;2023-08-07T11:19:09;2.65;;;1.65;;
27893;SDS011;15240;50.812;4.792;2023-08-07T11:21:35;4.55;;;1.60;;
27893;SDS011;15240;50.812;4.792;2023-08-07T11:24:02;2.90;;;1.58;;
27893;SDS011;15240;50.812;4.792;2023-08-07T11:26:28;2.75;;;1.50;;
27893;SDS011;15240;50.812;4.792;2023-08-07T11:28:55;2.28;;;1.30;;
27893;SDS011;15240;50.812;4.792;2023-08-07T11:31:22;3.25;;;1.40;;
27893;SDS011;15240;50.812;4.792;2023-08-07T11:33:50;1.85;;;1.23;;
27893;SDS011;15240;50.812;4.792;2023-08-07T11:36:16;4.72;;;1.70;;
27893;SDS011;15240;50.812;4.792;2023-08-07T11:38:43;3.70;;;1.48;;
27893;SDS011;15240;50.812;4.792;2023-08-07T11:41:10;3.08;;;1.40;;
27893;SDS011;15240;50.812;4.792;2023-08-07T11:43:36;3.05;;;1.30;;
27893;SDS011;15240;50.812;4.792;2023-08-07T11:46:06;2.38;;;1.38;;
27893;SDS011;15240;50.812;4.792;2023-08-07T11:48:36;2.40;;;1.50;;
27893;SDS011;15240;50.812;4.792;2023-08-07T11:51:03;4.15;;;1.52;;
27893;SDS011;15240;50.812;4.792;2023-08-07T11:53:32;4.30;;;1.75;;
27893;SDS011;15240;50.812;4.792;2023-08-07T11:55:59;3.75;;;1.52;;
27893;SDS011;15240;50.812;4.792;2023-08-07T11:58:26;3.08;;;1.77;;
27893;SDS011;15240;50.812;4.792;2023-08-07T12:00:53;3.30;;;1.48;;
27893;SDS011;15240;50.812;4.792;2023-08-07T12:03:25;2.28;;;1.60;;
27893;SDS011;15240;50.812;4.792;2023-08-07T12:05:52;5.13;;;1.60;;
27893;SDS011;15240;50.812;4.792;2023-08-07T12:08:18;4.65;;;1.58;;
27893;SDS011;15240;50.812;4.792;2023-08-07T12:10:48;2.40;;;1.20;;
27893;SDS011;15240;50.812;4.792;2023-08-07T12:13:14;3.80;;;1.40;;
27893;SDS011;15240;50.812;4.792;2023-08-07T12:15:41;4.22;;;1.60;;
27893;SDS011;15240;50.812;4.792;2023-08-07T12:18:07;4.30;;;1.67;;
27893;SDS011;15240;50.812;4.792;2023-08-07T12:20:33;2.67;;;1.70;;
27893;SDS011;15240;50.812;4.792;2023-08-07T12:23:00;2.65;;;1.35;;
27893;SDS011;15240;50.812;4.792;2023-08-07T12:25:26;4.70;;;1.70;;
27893;SDS011;15240;50.812;4.792;2023-08-07T12:27:52;8.40;;;1.73;;
27893;SDS011;15240;50.812;4.792;2023-08-07T12:30:18;3.25;;;1.55;;
27893;SDS011;15240;50.812;4.792;2023-08-07T12:32:44;3.03;;;1.65;;
27893;SDS011;15240;50.812;4.792;2023-08-07T12:35:10;2.42;;;1.65;;
27893;SDS011;15240;50.812;4.792;2023-08-07T12:37:36;2.15;;;1.50;;
27893;SDS011;15240;50.812;4.792;2023-08-07T12:40:02;1.80;;;1.25;;
27893;SDS011;15240;50.812;4.792;2023-08-07T12:42:31;2.20;;;1.40;;
27893;SDS011;15240;50.812;4.792;2023-08-07T12:44:57;3.28;;;1.55;;
27893;SDS011;15240;50.812;4.792;2023-08-07T12:47:23;2.85;;;1.70;;
27893;SDS011;15240;50.812;4.792;2023-08-07T12:49:50;4.20;;;1.73;;
27893;SDS011;15240;50.812;4.792;2023-08-07T12:52:16;4.28;;;1.58;;
27893;SDS011;15240;50.812;4.792;2023-08-07T12:54:42;3.65;;;1.63;;
27893;SDS011;15240;50.812;4.792;2023-08-07T12:57:08;2.30;;;1.30;;
27893;SDS011;15240;50.812;4.792;2023-08-07T12:59:37;5.93;;;1.60;;
27893;SDS011;15240;50.812;4.792;2023-08-07T13:02:06;3.83;;;1.58;;
27893;SDS011;15240;50.812;4.792;2023-08-07T13:04:32;4.00;;;1.60;;
27893;SDS011;15240;50.812;4.792;2023-08-07T13:06:58;4.32;;;1.85;;
27893;SDS011;15240;50.812;4.792;2023-08-07T13:09:24;2.63;;;1.45;;
27893;SDS011;15240;50.812;4.792;2023-08-07T13:11:53;2.53;;;1.30;;
27893;SDS011;15240;50.812;4.792;2023-08-07T13:14:19;2.33;;;1.23;;
27893;SDS011;15240;50.812;4.792;2023-08-07T13:16:45;2.95;;;1.58;;
27893;SDS011;15240;50.812;4.792;2023-08-07T13:19:11;2.85;;;1.45;;
27893;SDS011;15240;50.812;4.792;2023-08-07T13:21:37;2.65;;;1.40;;
27893;SDS011;15240;50.812;4.792;2023-08-07T13:24:04;2.78;;;1.60;;
27893;SDS011;15240;50.812;4.792;2023-08-07T13:26:30;2.58;;;1.40;;
27893;SDS011;15240;50.812;4.792;2023-08-07T13:28:56;2.08;;;1.23;;
27893;SDS011;15240;50.812;4.792;2023-08-07T13:31:22;2.95;;;1.50;;
27893;SDS011;15240;50.812;4.792;2023-08-07T13:33:48;2.15;;;1.27;;
27893;SDS011;15240;50.812;4.792;2023-08-07T13:36:14;3.17;;;1.50;;
27893;SDS011;15240;50.812;4.792;2023-08-07T13:38:41;2.35;;;1.60;;
27893;SDS011;15240;50.812;4.792;2023-08-07T13:41:07;2.30;;;1.50;;
27893;SDS011;15240;50.812;4.792;2023-08-07T13:43:33;3.30;;;1.20;;
27893;SDS011;15240;50.812;4.792;2023-08-07T13:45:59;2.30;;;1.30;;
27893;SDS011;15240;50.812;4.792;2023-08-07T13:48:25;2.50;;;1.60;;
27893;SDS011;15240;50.812;4.792;2023-08-07T13:50:53;3.10;;;1.17;;
27893;SDS011;15240;50.812;4.792;2023-08-07T13:53:19;2.05;;;1.40;;
27893;SDS011;15240;50.812;4.792;2023-08-07T13:55:46;3.45;;;1.25;;
27893;SDS011;15240;50.812;4.792;2023-08-07T13:58:12;2.15;;;1.20;;
27893;SDS011;15240;50.812;4.792;2023-08-07T14:00:41;2.28;;;1.20;;
27893;SDS011;15240;50.812;4.792;2023-08-07T14:03:08;2.05;;;1.00;;
27893;SDS011;15240;50.812;4.792;2023-08-07T14:05:35;2.58;;;1.17;;
27893;SDS011;15240;50.812;4.792;2023-08-07T14:08:03;2.88;;;1.20;;
27893;SDS011;15240;50.812;4.792;2023-08-07T14:10:29;2.25;;;1.10;;
27893;SDS011;15240;50.812;4.792;2023-08-07T14:12:55;2.67;;;1.00;;
27893;SDS011;15240;50.812;4.792;2023-08-07T14:15:21;2.60;;;1.10;;
27893;SDS011;15240;50.812;4.792;2023-08-07T14:17:48;1.77;;;0.98;;
27893;SDS011;15240;50.812;4.792;2023-08-07T14:20:14;1.98;;;1.10;;
27893;SDS011;15240;50.812;4.792;2023-08-07T14:22:40;3.53;;;1.10;;
27893;SDS011;15240;50.812;4.792;2023-08-07T14:25:06;2.15;;;0.88;;
27893;SDS011;15240;50.812;4.792;2023-08-07T14:27:32;1.33;;;0.70;;
27893;SDS011;15240;50.812;4.792;2023-08-07T14:29:58;1.77;;;0.82;;
27893;SDS011;15240;50.812;4.792;2023-08-07T14:32:25;2.55;;;0.90;;
27893;SDS011;15240;50.812;4.792;2023-08-07T14:34:51;2.13;;;0.70;;
27893;SDS011;15240;50.812;4.792;2023-08-07T14:37:17;2.17;;;0.80;;
27893;SDS011;15240;50.812;4.792;2023-08-07T14:39:43;1.83;;;1.00;;
27893;SDS011;15240;50.812;4.792;2023-08-07T14:42:09;4.72;;;0.90;;
27893;SDS011;15240;50.812;4.792;2023-08-07T14:44:36;1.50;;;0.70;;
27893;SDS011;15240;50.812;4.792;2023-08-07T14:47:05;2.80;;;0.85;;
27893;SDS011;15240;50.812;4.792;2023-08-07T14:49:31;1.73;;;0.70;;